Time;durP1;ratioP1;P1;durP2;ratioP2;P2;SDS_P1;SDS_P2;PMS_P1;PMS_P2;Temp;Humidity;BMP_temperature;BMP_pressure;BME280_temperature;BME280_humidity;BME280_pressure;Samples;Min_cycle;Max_cycle;Signal;HPM_P1;HPM_P2
2023/08/19 00:04:08;;;;;;;16.90;15.20;;;;;;;;;;2615091;54;20407;-74
2023/08/19 00:09:38;;;;;;;14.93;13.40;;;;;;;;;;2615231;54;20400;-76
2023/08/19 00:15:08;;;;;;;13.47;12.27;;;;;;;;;;2615038;54;20411;-75
2023/08/19 00:20:38;;;;;;;13.40;12.30;;;;;;;;;;2616150;39;20873;-74
2023/08/19 00:26:07;;;;;;;13.93;12.63;;;;;;;;;;2615458;54;20402;-76
2023/08/19 00:31:39;;;;;;;13.20;12.03;;;;;;;;;;2615161;54;20374;-75
2023/08/19 00:37:09;;;;;;;13.00;11.70;;;;;;;;;;2615208;54;20383;-75
2023/08/19 00:42:38;;;;;;;10.80;9.70;;;;;;;;;;2615329;54;20386;-74
2023/08/19 00:48:08;;;;;;;14.83;9.93;;;;;;;;;;2615233;54;20538;-74
2023/08/19 00:53:37;;;;;;;10.40;9.50;;;;;;;;;;2615336;54;20362;-75
2023/08/19 00:59:07;;;;;;;10.73;9.83;;;;;;;;;;2615965;39;20764;-75
2023/08/19 01:04:37;;;;;;;11.07;9.93;;;;;;;;;;2615107;54;20391;-74
2023/08/19 01:10:12;;;;;;;20.40;10.10;;;;;;;;;;2615132;54;20400;-75
2023/08/19 01:19:07;;;;;;;13.50;11.00;;;;;;;;;;2614891;54;20463;-75
2023/08/19 01:24:40;;;;;;;12.60;11.40;;;;;;;;;;2615198;54;20988;-74
2023/08/19 01:30:10;;;;;;;12.20;11.10;;;;;;;;;;2614775;54;20367;-76
2023/08/19 01:35:43;;;;;;;12.17;10.93;;;;;;;;;;2614442;54;20356;-73
2023/08/19 01:41:14;;;;;;;15.13;11.07;;;;;;;;;;2615210;54;20431;-73
2023/08/19 01:46:43;;;;;;;12.00;10.90;;;;;;;;;;2614619;54;20403;-73
2023/08/19 01:52:14;;;;;;;12.13;10.83;;;;;;;;;;2614897;54;20418;-74
2023/08/19 01:57:43;;;;;;;11.80;10.60;;;;;;;;;;2614531;54;20929;-73
2023/08/19 02:03:13;;;;;;;24.37;12.57;;;;;;;;;;2614971;54;20385;-74
2023/08/19 02:08:43;;;;;;;12.70;11.40;;;;;;;;;;2615033;54;20496;-74
2023/08/19 02:14:12;;;;;;;11.20;10.20;;;;;;;;;;2615393;54;20487;-74
2023/08/19 02:19:42;;;;;;;11.97;10.97;;;;;;;;;;2614969;39;20567;-74
2023/08/19 02:25:11;;;;;;;11.90;10.70;;;;;;;;;;2614760;54;20491;-74
2023/08/19 02:30:41;;;;;;;14.07;10.67;;;;;;;;;;2614754;54;20366;-75
2023/08/19 02:36:12;;;;;;;11.57;10.47;;;;;;;;;;2614098;54;20366;-74
2023/08/19 02:41:42;;;;;;;15.30;11.80;;;;;;;;;;2614845;54;20387;-71
2023/08/19 02:47:11;;;;;;;13.17;11.60;;;;;;;;;;2614825;54;20428;-72
2023/08/19 02:52:41;;;;;;;12.53;11.20;;;;;;;;;;2614517;54;20516;-72
2023/08/19 02:58:13;;;;;;;14.77;11.60;;;;;;;;;;2614173;54;20507;-72
2023/08/19 03:03:44;;;;;;;12.37;10.47;;;;;;;;;;2615175;54;20410;-72
2023/08/19 03:09:14;;;;;;;12.00;10.87;;;;;;;;;;2615544;31;20874;-72
2023/08/19 03:14:44;;;;;;;16.63;9.97;;;;;;;;;;2615520;31;20804;-71
2023/08/19 03:26:21;;;;;;;11.17;9.97;;;;;;;;;;2614634;54;20411;-72
2023/08/19 03:31:50;;;;;;;12.90;10.97;;;;;;;;;;2615566;31;20822;-72
2023/08/19 03:37:20;;;;;;;11.13;10.13;;;;;;;;;;2614713;54;20359;-71
2023/08/19 03:42:50;;;;;;;13.53;12.07;;;;;;;;;;2614798;54;20376;-72
2023/08/19 03:48:19;;;;;;;11.77;10.57;;;;;;;;;;2614811;54;20490;-71
2023/08/19 03:53:49;;;;;;;20.27;11.00;;;;;;;;;;2615627;54;20391;-74
2023/08/19 03:59:19;;;;;;;10.97;9.93;;;;;;;;;;2615314;39;20765;-75
2023/08/19 04:05:05;;;;;;;10.90;9.90;;;;;;;;;;2614568;54;20928;-70
2023/08/19 04:10:35;;;;;;;13.53;10.97;;;;;;;;;;2614627;54;20362;-71
2023/08/19 04:16:05;;;;;;;11.23;10.03;;;;;;;;;;2614649;39;20772;-72
2023/08/19 04:25:15;;;;;;;11.63;10.53;;;;;;;;;;2614230;54;20406;-70
2023/08/19 04:30:45;;;;;;;11.13;9.53;;;;;;;;;;2614311;54;20390;-70
2023/08/19 04:36:14;;;;;;;11.13;10.00;;;;;;;;;;2614328;54;20387;-71
2023/08/19 04:41:44;;;;;;;14.10;10.90;;;;;;;;;;2615019;54;20362;-70
2023/08/19 04:47:14;;;;;;;13.23;11.80;;;;;;;;;;2614385;46;20802;-70
2023/08/19 04:52:43;;;;;;;15.37;13.67;;;;;;;;;;2614317;54;20447;-69
2023/08/19 04:58:13;;;;;;;13.90;12.70;;;;;;;;;;2614331;54;20387;-70
2023/08/19 05:03:43;;;;;;;12.07;10.93;;;;;;;;;;2614471;54;20366;-70
2023/08/19 05:09:13;;;;;;;10.17;8.90;;;;;;;;;;2615256;54;20407;-70
2023/08/19 05:14:43;;;;;;;9.77;7.33;;;;;;;;;;2615701;39;20471;-70
2023/08/19 05:20:12;;;;;;;8.47;7.87;;;;;;;;;;2615715;39;20794;-69
2023/08/19 05:25:43;;;;;;;8.37;7.77;;;;;;;;;;2614824;46;20457;-72
2023/08/19 05:31:12;;;;;;;7.90;7.40;;;;;;;;;;2615463;39;20779;-75
2023/08/19 05:36:42;;;;;;;10.93;7.20;;;;;;;;;;2615350;39;21271;-74
2023/08/19 05:42:12;;;;;;;11.03;7.50;;;;;;;;;;2615369;54;20423;-75
2023/08/19 05:47:42;;;;;;;8.77;7.97;;;;;;;;;;2615736;39;20819;-74
2023/08/19 05:53:12;;;;;;;8.90;8.10;;;;;;;;;;2614988;54;20351;-74
2023/08/19 05:58:41;;;;;;;13.37;9.30;;;;;;;;;;2614837;54;20379;-75
2023/08/19 06:04:11;;;;;;;9.57;8.77;;;;;;;;;;2615363;47;20391;-76
2023/08/19 06:09:40;;;;;;;12.67;8.40;;;;;;;;;;2614555;54;20391;-73
2023/08/19 06:15:10;;;;;;;8.60;8.10;;;;;;;;;;2615648;54;20479;-73
2023/08/19 06:20:40;;;;;;;9.37;8.67;;;;;;;;;;2615478;39;20712;-76
2023/08/19 06:29:47;;;;;;;10.03;9.23;;;;;;;;;;2614762;54;20435;-75
2023/08/19 06:35:17;;;;;;;9.07;8.27;;;;;;;;;;2614800;54;20403;-74
2023/08/19 06:40:58;;;;;;;9.03;8.07;;;;;;;;;;2615100;54;20387;-75
2023/08/19 06:46:29;;;;;;;9.30;8.30;;;;;;;;;;2614804;54;21833;-75
2023/08/19 06:51:59;;;;;;;11.20;8.50;;;;;;;;;;2615295;46;20499;-74
2023/08/19 06:57:29;;;;;;;11.83;8.80;;;;;;;;;;2615402;39;20783;-75
2023/08/19 07:02:59;;;;;;;9.03;8.23;;;;;;;;;;2615235;54;20362;-75
2023/08/19 07:08:30;;;;;;;9.07;8.47;;;;;;;;;;2615576;39;21231;-74
2023/08/19 07:14:00;;;;;;;9.13;8.43;;;;;;;;;;2614998;54;20351;-75
2023/08/19 07:19:38;;;;;;;8.70;7.90;;;;;;;;;;2615161;39;20729;-76
2023/08/19 07:25:09;;;;;;;10.10;9.27;;;;;;;;;;2614037;54;20359;-73
2023/08/19 07:30:38;;;;;;;9.47;8.77;;;;;;;;;;2614219;54;20350;-74
2023/08/19 07:36:08;;;;;;;10.73;7.67;;;;;;;;;;2614320;54;20391;-75
2023/08/19 07:41:39;;;;;;;8.33;7.73;;;;;;;;;;2614565;54;20379;-73
2023/08/19 07:47:08;;;;;;;13.17;12.07;;;;;;;;;;2614143;54;20394;-74
2023/08/19 07:52:38;;;;;;;9.20;8.40;;;;;;;;;;2614428;54;20355;-73
2023/08/19 07:58:08;;;;;;;8.60;7.73;;;;;;;;;;2614470;54;20378;-73
2023/08/19 08:03:41;;;;;;;8.10;7.40;;;;;;;;;;2615398;31;20989;-74
2023/08/19 08:09:10;;;;;;;9.83;9.13;;;;;;;;;;2615003;54;20403;-74
2023/08/19 08:14:40;;;;;;;10.13;9.20;;;;;;;;;;2614444;54;20382;-73
2023/08/19 08:20:10;;;;;;;9.40;8.80;;;;;;;;;;2614498;54;20523;-73
2023/08/19 08:31:47;;;;;;;10.47;9.77;;;;;;;;;;2613847;54;20414;-75
2023/08/19 08:37:16;;;;;;;11.00;10.03;;;;;;;;;;2613613;54;20370;-74
2023/08/19 08:42:46;;;;;;;11.60;10.80;;;;;;;;;;2615339;39;20743;-73
2023/08/19 08:48:17;;;;;;;10.90;10.10;;;;;;;;;;2615741;39;20761;-74
2023/08/19 08:53:47;;;;;;;11.87;11.17;;;;;;;;;;2615034;54;20422;-74
2023/08/19 08:59:17;;;;;;;12.73;11.60;;;;;;;;;;2614869;54;20381;-72
2023/08/19 09:04:47;;;;;;;11.40;10.60;;;;;;;;;;2615319;39;20904;-74
2023/08/19 09:10:20;;;;;;;11.57;10.73;;;;;;;;;;2615092;54;20359;-74
2023/08/19 09:15:50;;;;;;;11.63;10.93;;;;;;;;;;2615235;54;20366;-74
2023/08/19 09:21:19;;;;;;;12.37;11.57;;;;;;;;;;2615382;54;20499;-74
2023/08/19 09:32:59;;;;;;;12.30;11.13;;;;;;;;;;2614685;54;20379;-75
2023/08/19 09:38:29;;;;;;;11.97;11.00;;;;;;;;;;2614902;54;20426;-74
2023/08/19 09:43:58;;;;;;;12.50;11.80;;;;;;;;;;2614697;54;20431;-73
2023/08/19 09:49:27;;;;;;;13.03;11.73;;;;;;;;;;2615034;54;20390;-75
2023/08/19 09:52:12;;;;;;;12.93;11.70;;;;;;;;;;2614830;54;20507;-74
2023/08/19 09:54:39;;;;;;;12.43;11.53;;;;;;;;;;2615116;54;20399;-74
2023/08/19 10:00:09;;;;;;;12.60;11.70;;;;;;;;;;2614616;54;20382;-74
2023/08/19 10:05:40;;;;;;;11.67;11.00;;;;;;;;;;2614472;54;20468;-72
2023/08/19 10:11:09;;;;;;;12.63;11.83;;;;;;;;;;2614831;54;20945;-73
2023/08/19 10:16:43;;;;;;;12.53;11.53;;;;;;;;;;2614584;54;20500;-73
2023/08/19 10:22:14;;;;;;;12.47;11.77;;;;;;;;;;2614535;54;20395;-72
2023/08/19 10:31:20;;;;;;;11.77;11.07;;;;;;;;;;2615031;54;20399;-73
2023/08/19 10:43:13;;;;;;;12.67;11.77;;;;;;;;;;2612773;54;20428;-74
2023/08/19 10:48:45;;;;;;;13.03;12.23;;;;;;;;;;2613403;54;20417;-73
2023/08/19 10:54:15;;;;;;;15.43;14.33;;;;;;;;;;2613033;39;20510;-73
2023/08/19 10:59:45;;;;;;;14.43;12.87;;;;;;;;;;2613613;54;20380;-74
2023/08/19 11:11:16;;;;;;;13.37;12.13;;;;;;;;;;2613629;39;20844;-73
2023/08/19 11:16:49;;;;;;;14.23;12.87;;;;;;;;;;2614231;54;20397;-74
2023/08/19 11:22:20;;;;;;;13.73;12.73;;;;;;;;;;2614571;54;20347;-73
2023/08/19 11:31:20;;;;;;;12.80;11.77;;;;;;;;;;2615181;39;20743;-72
2023/08/19 11:36:50;;;;;;;13.10;12.30;;;;;;;;;;2614936;54;20366;-73
2023/08/19 11:42:19;;;;;;;14.10;12.80;;;;;;;;;;2614491;54;20479;-73
2023/08/19 11:47:49;;;;;;;13.37;12.37;;;;;;;;;;2614404;54;20410;-73
2023/08/19 11:53:26;;;;;;;12.57;11.37;;;;;;;;;;2614926;54;20512;-72
2023/08/19 11:58:55;;;;;;;11.50;10.63;;;;;;;;;;2614229;54;20371;-72
2023/08/19 12:04:25;;;;;;;14.00;10.00;;;;;;;;;;2614313;46;20418;-69
2023/08/19 12:09:58;;;;;;;14.40;10.17;;;;;;;;;;2614741;54;20488;-70
2023/08/19 12:15:28;;;;;;;10.33;9.23;;;;;;;;;;2613979;54;20937;-69
2023/08/19 12:20:57;;;;;;;11.37;10.27;;;;;;;;;;2615073;54;21668;-70
2023/08/19 12:26:28;;;;;;;12.17;10.97;;;;;;;;;;2615328;39;20792;-70
2023/08/19 12:31:58;;;;;;;15.27;10.77;;;;;;;;;;2615095;54;20522;-69
2023/08/19 12:37:27;;;;;;;15.13;13.50;;;;;;;;;;2614990;54;20419;-70
2023/08/19 12:42:57;;;;;;;13.93;12.83;;;;;;;;;;2615415;54;20395;-69
2023/08/19 12:48:26;;;;;;;16.83;13.30;;;;;;;;;;2614931;54;20400;-71
2023/08/19 12:53:56;;;;;;;14.53;13.13;;;;;;;;;;2616058;39;20962;-70
2023/08/19 12:59:26;;;;;;;15.57;14.20;;;;;;;;;;2615781;39;20773;-69
2023/08/19 13:04:56;;;;;;;13.87;12.67;;;;;;;;;;2615509;39;20710;-73
2023/08/19 13:10:25;;;;;;;17.03;13.93;;;;;;;;;;2615604;54;20383;-74
2023/08/19 13:15:55;;;;;;;13.93;12.73;;;;;;;;;;2614577;54;21714;-73
2023/08/19 13:21:25;;;;;;;15.53;13.90;;;;;;;;;;2614842;54;20351;-73
2023/08/19 13:26:54;;;;;;;17.30;15.83;;;;;;;;;;2614491;54;20997;-73
2023/08/19 13:32:24;;;;;;;16.60;15.10;;;;;;;;;;2614685;54;20396;-73
2023/08/19 13:37:54;;;;;;;19.73;18.10;;;;;;;;;;2615012;54;20370;-73
2023/08/19 13:43:23;;;;;;;19.53;16.53;;;;;;;;;;2615116;54;20372;-73
2023/08/19 13:48:53;;;;;;;19.17;17.30;;;;;;;;;;2614719;54;20399;-72
2023/08/19 13:54:23;;;;;;;18.30;16.57;;;;;;;;;;2614811;54;20382;-72
2023/08/19 13:59:53;;;;;;;21.77;19.67;;;;;;;;;;2614739;54;21019;-72
2023/08/19 14:05:22;;;;;;;18.17;16.67;;;;;;;;;;2615134;39;21289;-73
2023/08/19 14:10:52;;;;;;;15.17;13.60;;;;;;;;;;2614922;54;20423;-72
2023/08/19 14:16:22;;;;;;;17.17;15.60;;;;;;;;;;2614819;54;20391;-73
2023/08/19 14:21:52;;;;;;;17.40;15.70;;;;;;;;;;2614633;54;20411;-73
2023/08/19 14:33:28;;;;;;;14.43;13.00;;;;;;;;;;2614655;54;20520;-71
2023/08/19 14:38:59;;;;;;;12.47;11.23;;;;;;;;;;2614331;54;20394;-72
2023/08/19 14:44:28;;;;;;;16.20;11.60;;;;;;;;;;2614461;54;20356;-72
2023/08/19 14:49:58;;;;;;;13.90;12.73;;;;;;;;;;2614604;46;20402;-72
2023/08/19 14:55:28;;;;;;;14.43;13.03;;;;;;;;;;2614752;54;20411;-73
2023/08/19 15:00:58;;;;;;;15.23;13.83;;;;;;;;;;2614099;54;20953;-73
2023/08/19 15:06:28;;;;;;;14.33;12.93;;;;;;;;;;2613720;54;20411;-73
2023/08/19 15:11:58;;;;;;;16.97;15.50;;;;;;;;;;2613928;54;20366;-72
2023/08/19 15:17:27;;;;;;;17.70;16.07;;;;;;;;;;2614081;54;20488;-73
2023/08/19 15:22:57;;;;;;;22.30;20.30;;;;;;;;;;2614398;54;20383;-73
2023/08/19 15:37:51;;;;;;;19.13;17.30;;;;;;;;;;2613464;54;20390;-74
2023/08/19 15:43:20;;;;;;;16.27;14.77;;;;;;;;;;2613747;54;20448;-73
2023/08/19 15:48:49;;;;;;;17.37;15.53;;;;;;;;;;2613332;54;20898;-74
2023/08/19 15:51:33;;;;;;;14.90;13.40;;;;;;;;;;2613180;54;20403;-73
2023/08/19 15:53:59;;;;;;;11.77;10.57;;;;;;;;;;2613505;54;20438;-74
2023/08/19 15:59:28;;;;;;;8.40;7.60;;;;;;;;;;2613542;54;20395;-73
2023/08/19 16:04:57;;;;;;;8.90;8.10;;;;;;;;;;2613580;54;20399;-74
2023/08/19 16:10:27;;;;;;;7.80;7.07;;;;;;;;;;2614624;54;21253;-74
2023/08/19 16:15:58;;;;;;;7.70;6.97;;;;;;;;;;2614831;54;20432;-74
2023/08/19 16:21:28;;;;;;;9.03;8.20;;;;;;;;;;2614632;54;20350;-73
2023/08/19 16:26:58;;;;;;;12.77;8.43;;;;;;;;;;2614046;54;20523;-74
2023/08/19 16:32:27;;;;;;;8.90;8.30;;;;;;;;;;2614570;54;21023;-73
2023/08/19 16:37:57;;;;;;;8.87;8.27;;;;;;;;;;2614811;54;20399;-73
2023/08/19 16:43:27;;;;;;;9.00;8.23;;;;;;;;;;2614401;54;20375;-72
2023/08/19 16:48:56;;;;;;;8.80;8.10;;;;;;;;;;2614195;54;20390;-72
2023/08/19 16:54:26;;;;;;;9.80;9.00;;;;;;;;;;2614116;54;20394;-72
2023/08/19 16:59:55;;;;;;;10.47;9.77;;;;;;;;;;2613761;54;20387;-73
2023/08/19 17:05:25;;;;;;;9.20;8.60;;;;;;;;;;2614429;54;20553;-72
2023/08/19 17:10:55;;;;;;;10.00;9.40;;;;;;;;;;2614949;54;20387;-73
2023/08/19 17:16:24;;;;;;;10.80;10.10;;;;;;;;;;2614897;54;20355;-73
2023/08/19 17:21:54;;;;;;;9.93;9.40;;;;;;;;;;2614632;54;20512;-73
2023/08/19 17:27:23;;;;;;;12.60;11.90;;;;;;;;;;2614699;54;21012;-73
2023/08/19 17:39:00;;;;;;;7.73;7.13;;;;;;;;;;2614966;46;20434;-72
2023/08/19 17:44:34;;;;;;;8.00;7.40;;;;;;;;;;2614846;54;20386;-73
2023/08/19 17:50:04;;;;;;;7.63;7.13;;;;;;;;;;2615113;54;20390;-73
2023/08/19 17:55:34;;;;;;;8.20;7.60;;;;;;;;;;2615237;54;20527;-74
2023/08/19 18:01:04;;;;;;;9.23;8.63;;;;;;;;;;2615442;54;20355;-74
2023/08/19 18:06:34;;;;;;;8.97;8.27;;;;;;;;;;2615317;54;20511;-75
2023/08/19 18:12:04;;;;;;;9.70;8.87;;;;;;;;;;2615251;54;20419;-75
2023/08/19 18:17:33;;;;;;;9.23;8.53;;;;;;;;;;2615262;54;20391;-74
2023/08/19 18:23:03;;;;;;;9.07;8.37;;;;;;;;;;2615590;54;20503;-75
2023/08/19 18:28:33;;;;;;;8.30;7.60;;;;;;;;;;2615341;39;20719;-75
2023/08/19 18:37:35;;;;;;;8.87;8.27;;;;;;;;;;2615317;39;20982;-75
2023/08/19 18:43:05;;;;;;;9.70;8.90;;;;;;;;;;2615683;54;20922;-74
2023/08/19 18:48:34;;;;;;;10.10;9.20;;;;;;;;;;2614942;54;20917;-75
2023/08/19 18:54:06;;;;;;;8.17;7.47;;;;;;;;;;2614729;54;20379;-75
2023/08/19 18:59:35;;;;;;;9.30;8.50;;;;;;;;;;2615120;54;20474;-75
2023/08/19 19:05:06;;;;;;;9.00;8.30;;;;;;;;;;2614760;54;20519;-70
2023/08/19 19:10:35;;;;;;;8.27;7.57;;;;;;;;;;2615018;54;20387;-70
2023/08/19 19:16:05;;;;;;;8.90;8.20;;;;;;;;;;2614701;54;20383;-69
2023/08/19 19:21:34;;;;;;;11.50;10.50;;;;;;;;;;2614673;54;20507;-69
2023/08/19 19:27:04;;;;;;;18.77;17.27;;;;;;;;;;2614314;46;20487;-70
2023/08/19 19:32:34;;;;;;;13.73;12.53;;;;;;;;;;2614889;54;20374;-73
2023/08/19 19:38:05;;;;;;;10.03;9.23;;;;;;;;;;2614934;54;20438;-70
2023/08/19 19:43:35;;;;;;;9.60;8.80;;;;;;;;;;2614853;54;20415;-71
2023/08/19 19:49:05;;;;;;;10.10;9.10;;;;;;;;;;2615075;54;20367;-71
2023/08/19 19:54:35;;;;;;;9.90;9.00;;;;;;;;;;2614651;54;20387;-69
2023/08/19 20:00:07;;;;;;;9.83;8.93;;;;;;;;;;2614867;54;20411;-71
2023/08/19 20:05:37;;;;;;;9.07;8.10;;;;;;;;;;2614733;54;20467;-70
2023/08/19 20:11:07;;;;;;;10.27;9.37;;;;;;;;;;2614883;54;20399;-71
2023/08/19 20:16:37;;;;;;;10.77;9.90;;;;;;;;;;2614293;54;20390;-74
2023/08/19 20:22:06;;;;;;;16.60;14.90;;;;;;;;;;2614401;54;20504;-75
2023/08/19 20:27:36;;;;;;;12.53;11.07;;;;;;;;;;2614007;54;20514;-74
2023/08/19 20:33:05;;;;;;;11.00;9.90;;;;;;;;;;2614248;54;20382;-77
2023/08/19 20:47:59;;;;;;;11.20;9.33;;;;;;;;;;2613729;54;20394;-75
2023/08/19 20:53:29;;;;;;;11.47;9.90;;;;;;;;;;2613660;54;20442;-74
2023/08/19 20:58:58;;;;;;;15.20;9.30;;;;;;;;;;2613333;54;20999;-74
2023/08/19 21:04:28;;;;;;;8.73;7.93;;;;;;;;;;2613112;54;20387;-75
2023/08/19 21:09:57;;;;;;;9.53;8.63;;;;;;;;;;2613535;54;20391;-73
2023/08/19 21:15:27;;;;;;;11.90;10.03;;;;;;;;;;2613759;39;21005;-74
2023/08/19 21:20:57;;;;;;;12.33;10.93;;;;;;;;;;2614471;46;20520;-73
2023/08/19 21:26:27;;;;;;;11.87;10.30;;;;;;;;;;2615796;39;20790;-69
2023/08/19 21:31:56;;;;;;;13.87;12.50;;;;;;;;;;2614941;54;20383;-71
2023/08/19 21:37:26;;;;;;;15.30;11.67;;;;;;;;;;2614744;54;20426;-69
2023/08/19 21:42:56;;;;;;;15.43;13.80;;;;;;;;;;2614911;54;20532;-69
2023/08/19 21:48:25;;;;;;;16.73;11.50;;;;;;;;;;2615277;39;20753;-70
2023/08/19 21:51:10;;;;;;;17.87;14.50;;;;;;;;;;2614666;54;20400;-69
2023/08/19 21:53:36;;;;;;;17.13;15.43;;;;;;;;;;2615542;39;20826;-70
2023/08/19 21:59:06;;;;;;;17.17;15.00;;;;;;;;;;2615370;54;20928;-70
2023/08/19 22:04:36;;;;;;;14.50;13.10;;;;;;;;;;2614866;54;20404;-70
2023/08/19 22:10:06;;;;;;;15.87;14.30;;;;;;;;;;2615718;31;20896;-70
2023/08/19 22:15:35;;;;;;;14.33;12.80;;;;;;;;;;2614818;54;21038;-70
2023/08/19 22:21:05;;;;;;;12.97;11.73;;;;;;;;;;2615126;54;20359;-72
2023/08/19 22:26:35;;;;;;;16.77;14.90;;;;;;;;;;2615535;54;21022;-69
2023/08/19 22:32:04;;;;;;;13.43;12.13;;;;;;;;;;2614883;54;20352;-70
2023/08/19 22:37:34;;;;;;;17.30;12.93;;;;;;;;;;2614717;54;20876;-74
2023/08/19 22:43:04;;;;;;;15.57;13.07;;;;;;;;;;2614909;54;20363;-74
2023/08/19 22:48:33;;;;;;;14.60;11.67;;;;;;;;;;2615098;54;20367;-74
2023/08/19 22:54:03;;;;;;;21.60;13.57;;;;;;;;;;2615010;54;20395;-74
2023/08/19 22:59:33;;;;;;;13.83;12.47;;;;;;;;;;2614560;54;20478;-74
2023/08/19 23:05:03;;;;;;;14.67;12.20;;;;;;;;;;2614611;54;20403;-73
2023/08/19 23:10:33;;;;;;;12.77;10.40;;;;;;;;;;2614869;54;20347;-73
2023/08/19 23:16:02;;;;;;;13.83;10.53;;;;;;;;;;2615124;31;20825;-74
2023/08/19 23:21:32;;;;;;;15.90;11.20;;;;;;;;;;2614359;54;20352;-74
2023/08/19 23:27:02;;;;;;;12.97;11.27;;;;;;;;;;2614534;54;20402;-74
2023/08/19 23:32:31;;;;;;;13.70;11.80;;;;;;;;;;2614518;54;20390;-74
2023/08/19 23:44:08;;;;;;;13.60;11.03;;;;;;;;;;2614664;54;21360;-73
2023/08/19 23:49:38;;;;;;;13.47;12.07;;;;;;;;;;2615002;39;20738;-72
2023/08/19 23:55:09;;;;;;;16.37;11.20;;;;;;;;;;2614407;54;20386;-74
